sensor_id;sensor_type;location;lat;lon;timestamp;P1;durP1;ratioP1;P2;durP2;ratioP2
27939;SDS011;15275;51.716;14.324;2022-08-25T00:01:31;14.80;;;10.70;;
27939;SDS011;15275;51.716;14.324;2022-08-25T00:04:00;12.98;;;9.52;;
27939;SDS011;15275;51.716;14.324;2022-08-25T00:06:28;14.70;;;10.45;;
27939;SDS011;15275;51.716;14.324;2022-08-25T00:08:55;12.68;;;9.88;;
27939;SDS011;15275;51.716;14.324;2022-08-25T00:11:24;12.82;;;10.23;;
27939;SDS011;15275;51.716;14.324;2022-08-25T00:13:55;15.35;;;9.63;;
27939;SDS011;15275;51.716;14.324;2022-08-25T00:16:25;13.60;;;10.38;;
27939;SDS011;15275;51.716;14.324;2022-08-25T00:18:54;15.65;;;10.52;;
27939;SDS011;15275;51.716;14.324;2022-08-25T00:21:23;13.15;;;10.77;;
27939;SDS011;15275;51.716;14.324;2022-08-25T00:23:50;12.93;;;11.60;;
27939;SDS011;15275;51.716;14.324;2022-08-25T00:26:16;14.75;;;10.32;;
27939;SDS011;15275;51.716;14.324;2022-08-25T00:28:43;15.57;;;11.15;;
27939;SDS011;15275;51.716;14.324;2022-08-25T00:31:11;13.10;;;11.30;;
27939;SDS011;15275;51.716;14.324;2022-08-25T00:33:43;12.17;;;10.23;;
27939;SDS011;15275;51.716;14.324;2022-08-25T00:36:10;14.10;;;10.20;;
27939;SDS011;15275;51.716;14.324;2022-08-25T00:38:39;10.27;;;9.10;;
27939;SDS011;15275;51.716;14.324;2022-08-25T00:41:08;12.50;;;10.82;;
27939;SDS011;15275;51.716;14.324;2022-08-25T00:46:05;11.18;;;9.05;;
27939;SDS011;15275;51.716;14.324;2022-08-25T00:48:33;11.48;;;8.98;;
27939;SDS011;15275;51.716;14.324;2022-08-25T00:51:00;12.23;;;10.38;;
27939;SDS011;15275;51.716;14.324;2022-08-25T00:53:28;12.93;;;9.73;;
27939;SDS011;15275;51.716;14.324;2022-08-25T00:55:55;12.80;;;10.20;;
27939;SDS011;15275;51.716;14.324;2022-08-25T00:58:24;13.27;;;10.35;;
27939;SDS011;15275;51.716;14.324;2022-08-25T01:00:54;19.23;;;10.88;;
27939;SDS011;15275;51.716;14.324;2022-08-25T01:03:22;13.95;;;10.00;;
27939;SDS011;15275;51.716;14.324;2022-08-25T01:05:52;14.88;;;10.15;;
27939;SDS011;15275;51.716;14.324;2022-08-25T01:08:19;12.75;;;9.55;;
27939;SDS011;15275;51.716;14.324;2022-08-25T01:10:50;12.68;;;9.13;;
27939;SDS011;15275;51.716;14.324;2022-08-25T01:13:21;12.40;;;10.02;;
27939;SDS011;15275;51.716;14.324;2022-08-25T01:15:53;14.40;;;9.35;;
27939;SDS011;15275;51.716;14.324;2022-08-25T01:18:20;12.23;;;9.55;;
27939;SDS011;15275;51.716;14.324;2022-08-25T01:20:51;12.30;;;9.43;;
27939;SDS011;15275;51.716;14.324;2022-08-25T01:23:23;11.15;;;9.57;;
27939;SDS011;15275;51.716;14.324;2022-08-25T01:28:30;12.27;;;10.43;;
27939;SDS011;15275;51.716;14.324;2022-08-25T01:30:56;13.55;;;10.85;;
27939;SDS011;15275;51.716;14.324;2022-08-25T01:33:22;13.43;;;9.20;;
27939;SDS011;15275;51.716;14.324;2022-08-25T01:35:48;11.88;;;10.30;;
27939;SDS011;15275;51.716;14.324;2022-08-25T01:38:14;15.20;;;10.35;;
27939;SDS011;15275;51.716;14.324;2022-08-25T01:40:40;12.80;;;10.20;;
27939;SDS011;15275;51.716;14.324;2022-08-25T01:45:39;17.17;;;10.18;;
27939;SDS011;15275;51.716;14.324;2022-08-25T01:48:10;10.77;;;9.73;;
27939;SDS011;15275;51.716;14.324;2022-08-25T01:50:37;12.77;;;9.35;;
27939;SDS011;15275;51.716;14.324;2022-08-25T01:53:38;15.15;;;10.10;;
27939;SDS011;15275;51.716;14.324;2022-08-25T01:55:57;13.25;;;9.40;;
27939;SDS011;15275;51.716;14.324;2022-08-25T01:58:27;12.75;;;10.05;;
27939;SDS011;15275;51.716;14.324;2022-08-25T02:01:00;12.67;;;9.67;;
27939;SDS011;15275;51.716;14.324;2022-08-25T02:03:30;11.35;;;8.65;;
27939;SDS011;15275;51.716;14.324;2022-08-25T02:05:57;12.63;;;9.40;;
27939;SDS011;15275;51.716;14.324;2022-08-25T02:08:23;9.45;;;8.45;;
27939;SDS011;15275;51.716;14.324;2022-08-25T02:10:50;11.27;;;9.20;;
27939;SDS011;15275;51.716;14.324;2022-08-25T02:13:18;14.68;;;10.90;;
27939;SDS011;15275;51.716;14.324;2022-08-25T02:15:46;13.77;;;9.85;;
27939;SDS011;15275;51.716;14.324;2022-08-25T02:18:15;14.23;;;10.18;;
27939;SDS011;15275;51.716;14.324;2022-08-25T02:20:42;18.67;;;10.68;;
27939;SDS011;15275;51.716;14.324;2022-08-25T02:23:09;15.13;;;11.65;;
27939;SDS011;15275;51.716;14.324;2022-08-25T02:25:36;16.52;;;11.57;;
27939;SDS011;15275;51.716;14.324;2022-08-25T02:28:05;14.13;;;11.07;;
27939;SDS011;15275;51.716;14.324;2022-08-25T02:30:32;13.77;;;10.75;;
27939;SDS011;15275;51.716;14.324;2022-08-25T02:33:00;10.32;;;9.23;;
27939;SDS011;15275;51.716;14.324;2022-08-25T02:35:26;13.07;;;9.10;;
27939;SDS011;15275;51.716;14.324;2022-08-25T02:37:53;11.18;;;9.10;;
27939;SDS011;15275;51.716;14.324;2022-08-25T02:40:19;12.68;;;10.25;;
27939;SDS011;15275;51.716;14.324;2022-08-25T02:42:46;15.85;;;10.52;;
27939;SDS011;15275;51.716;14.324;2022-08-25T02:45:14;11.93;;;9.20;;
27939;SDS011;15275;51.716;14.324;2022-08-25T02:47:40;11.20;;;9.52;;
27939;SDS011;15275;51.716;14.324;2022-08-25T02:50:07;13.38;;;10.20;;
27939;SDS011;15275;51.716;14.324;2022-08-25T02:52:33;13.20;;;10.38;;
27939;SDS011;15275;51.716;14.324;2022-08-25T02:55:04;14.13;;;11.57;;
27939;SDS011;15275;51.716;14.324;2022-08-25T02:57:33;12.10;;;9.75;;
27939;SDS011;15275;51.716;14.324;2022-08-25T03:00:00;15.80;;;10.38;;
27939;SDS011;15275;51.716;14.324;2022-08-25T03:02:26;13.38;;;9.85;;
27939;SDS011;15275;51.716;14.324;2022-08-25T03:04:52;13.52;;;10.52;;
27939;SDS011;15275;51.716;14.324;2022-08-25T03:07:19;11.35;;;8.98;;
27939;SDS011;15275;51.716;14.324;2022-08-25T03:09:45;10.95;;;9.38;;
27939;SDS011;15275;51.716;14.324;2022-08-25T03:12:12;15.25;;;9.93;;
27939;SDS011;15275;51.716;14.324;2022-08-25T03:14:38;13.73;;;10.07;;
27939;SDS011;15275;51.716;14.324;2022-08-25T03:17:05;14.05;;;8.93;;
27939;SDS011;15275;51.716;14.324;2022-08-25T03:19:32;10.80;;;8.90;;
27939;SDS011;15275;51.716;14.324;2022-08-25T03:21:59;13.15;;;10.50;;
27939;SDS011;15275;51.716;14.324;2022-08-25T03:24:25;13.57;;;9.77;;
27939;SDS011;15275;51.716;14.324;2022-08-25T03:26:52;12.60;;;9.85;;
27939;SDS011;15275;51.716;14.324;2022-08-25T03:29:27;19.40;;;10.43;;
27939;SDS011;15275;51.716;14.324;2022-08-25T03:31:57;12.52;;;10.02;;
27939;SDS011;15275;51.716;14.324;2022-08-25T03:34:24;12.85;;;10.15;;
27939;SDS011;15275;51.716;14.324;2022-08-25T03:36:53;11.18;;;9.60;;
27939;SDS011;15275;51.716;14.324;2022-08-25T03:39:21;12.25;;;10.40;;
27939;SDS011;15275;51.716;14.324;2022-08-25T03:41:49;15.35;;;11.13;;
27939;SDS011;15275;51.716;14.324;2022-08-25T03:44:17;18.73;;;14.02;;
27939;SDS011;15275;51.716;14.324;2022-08-25T03:46:48;19.77;;;17.23;;
27939;SDS011;15275;51.716;14.324;2022-08-25T03:49:17;17.90;;;15.23;;
27939;SDS011;15275;51.716;14.324;2022-08-25T03:51:47;15.43;;;13.80;;
27939;SDS011;15275;51.716;14.324;2022-08-25T03:54:17;17.73;;;15.00;;
27939;SDS011;15275;51.716;14.324;2022-08-25T03:56:47;18.00;;;15.00;;
27939;SDS011;15275;51.716;14.324;2022-08-25T03:59:13;16.85;;;14.23;;
27939;SDS011;15275;51.716;14.324;2022-08-25T04:01:40;18.42;;;14.63;;
27939;SDS011;15275;51.716;14.324;2022-08-25T04:04:08;21.63;;;15.93;;
27939;SDS011;15275;51.716;14.324;2022-08-25T04:06:36;18.75;;;15.63;;
27939;SDS011;15275;51.716;14.324;2022-08-25T04:09:03;18.25;;;15.32;;
27939;SDS011;15275;51.716;14.324;2022-08-25T04:11:30;17.90;;;14.95;;
27939;SDS011;15275;51.716;14.324;2022-08-25T04:13:57;17.83;;;14.38;;
27939;SDS011;15275;51.716;14.324;2022-08-25T04:16:26;16.90;;;14.93;;
27939;SDS011;15275;51.716;14.324;2022-08-25T04:18:55;18.40;;;14.40;;
27939;SDS011;15275;51.716;14.324;2022-08-25T04:21:23;18.50;;;14.23;;
27939;SDS011;15275;51.716;14.324;2022-08-25T04:23:51;17.83;;;14.38;;
27939;SDS011;15275;51.716;14.324;2022-08-25T04:28:57;14.82;;;13.25;;
27939;SDS011;15275;51.716;14.324;2022-08-25T04:31:26;13.68;;;11.98;;
27939;SDS011;15275;51.716;14.324;2022-08-25T04:33:53;16.77;;;11.35;;
27939;SDS011;15275;51.716;14.324;2022-08-25T04:36:20;17.42;;;11.02;;
27939;SDS011;15275;51.716;14.324;2022-08-25T04:38:47;15.23;;;12.10;;
27939;SDS011;15275;51.716;14.324;2022-08-25T04:41:15;12.00;;;10.68;;
27939;SDS011;15275;51.716;14.324;2022-08-25T04:43:45;13.25;;;11.80;;
27939;SDS011;15275;51.716;14.324;2022-08-25T04:46:13;12.98;;;10.25;;
27939;SDS011;15275;51.716;14.324;2022-08-25T04:48:42;15.45;;;10.88;;
27939;SDS011;15275;51.716;14.324;2022-08-25T04:51:09;12.07;;;10.23;;
27939;SDS011;15275;51.716;14.324;2022-08-25T04:53:42;14.05;;;10.48;;
27939;SDS011;15275;51.716;14.324;2022-08-25T04:56:09;13.82;;;11.15;;
27939;SDS011;15275;51.716;14.324;2022-08-25T04:58:38;15.55;;;11.07;;
27939;SDS011;15275;51.716;14.324;2022-08-25T05:01:06;19.35;;;12.05;;
27939;SDS011;15275;51.716;14.324;2022-08-25T05:03:35;16.00;;;11.77;;
27939;SDS011;15275;51.716;14.324;2022-08-25T05:06:03;12.18;;;10.88;;
27939;SDS011;15275;51.716;14.324;2022-08-25T05:08:37;15.02;;;10.93;;
27939;SDS011;15275;51.716;14.324;2022-08-25T05:11:07;13.43;;;10.88;;
27939;SDS011;15275;51.716;14.324;2022-08-25T05:13:37;12.95;;;10.65;;
27939;SDS011;15275;51.716;14.324;2022-08-25T05:16:03;12.85;;;11.02;;
27939;SDS011;15275;51.716;14.324;2022-08-25T05:18:30;16.73;;;11.65;;
27939;SDS011;15275;51.716;14.324;2022-08-25T05:21:17;14.23;;;11.18;;
27939;SDS011;15275;51.716;14.324;2022-08-25T05:23:46;14.00;;;11.70;;
27939;SDS011;15275;51.716;14.324;2022-08-25T05:26:15;15.27;;;13.25;;
27939;SDS011;15275;51.716;14.324;2022-08-25T05:28:44;19.13;;;13.90;;
27939;SDS011;15275;51.716;14.324;2022-08-25T05:31:11;18.85;;;13.68;;
27939;SDS011;15275;51.716;14.324;2022-08-25T05:33:40;15.52;;;13.23;;
27939;SDS011;15275;51.716;14.324;2022-08-25T05:36:07;20.90;;;15.13;;
27939;SDS011;15275;51.716;14.324;2022-08-25T05:38:35;19.92;;;14.38;;
27939;SDS011;15275;51.716;14.324;2022-08-25T05:41:03;18.77;;;15.30;;
27939;SDS011;15275;51.716;14.324;2022-08-25T05:43:31;17.83;;;14.70;;
27939;SDS011;15275;51.716;14.324;2022-08-25T05:45:58;17.05;;;13.93;;
27939;SDS011;15275;51.716;14.324;2022-08-25T05:48:25;19.40;;;14.05;;
27939;SDS011;15275;51.716;14.324;2022-08-25T05:50:56;16.42;;;14.32;;
27939;SDS011;15275;51.716;14.324;2022-08-25T05:53:25;19.60;;;14.73;;
27939;SDS011;15275;51.716;14.324;2022-08-25T05:55:53;18.58;;;13.35;;
27939;SDS011;15275;51.716;14.324;2022-08-25T05:58:21;16.88;;;13.27;;
27939;SDS011;15275;51.716;14.324;2022-08-25T06:00:49;17.67;;;12.98;;
27939;SDS011;15275;51.716;14.324;2022-08-25T06:03:15;17.92;;;13.10;;
27939;SDS011;15275;51.716;14.324;2022-08-25T06:05:42;17.48;;;13.63;;
27939;SDS011;15275;51.716;14.324;2022-08-25T06:08:08;18.10;;;14.07;;
27939;SDS011;15275;51.716;14.324;2022-08-25T06:10:34;18.88;;;14.55;;
27939;SDS011;15275;51.716;14.324;2022-08-25T06:13:01;19.90;;;15.18;;
27939;SDS011;15275;51.716;14.324;2022-08-25T06:15:27;20.95;;;13.30;;
27939;SDS011;15275;51.716;14.324;2022-08-25T06:17:54;17.08;;;14.88;;
27939;SDS011;15275;51.716;14.324;2022-08-25T06:20:23;22.63;;;14.38;;
27939;SDS011;15275;51.716;14.324;2022-08-25T06:22:52;17.65;;;14.48;;
27939;SDS011;15275;51.716;14.324;2022-08-25T06:25:20;21.90;;;15.57;;
27939;SDS011;15275;51.716;14.324;2022-08-25T06:27:48;19.17;;;15.85;;
27939;SDS011;15275;51.716;14.324;2022-08-25T06:30:15;21.52;;;16.98;;
27939;SDS011;15275;51.716;14.324;2022-08-25T06:32:44;24.42;;;16.17;;
27939;SDS011;15275;51.716;14.324;2022-08-25T06:35:12;20.95;;;16.05;;
27939;SDS011;15275;51.716;14.324;2022-08-25T06:37:42;23.00;;;16.83;;
27939;SDS011;15275;51.716;14.324;2022-08-25T06:40:09;20.98;;;15.57;;
27939;SDS011;15275;51.716;14.324;2022-08-25T06:42:36;19.98;;;15.05;;
27939;SDS011;15275;51.716;14.324;2022-08-25T06:45:03;21.25;;;16.52;;
27939;SDS011;15275;51.716;14.324;2022-08-25T06:47:30;20.08;;;16.48;;
27939;SDS011;15275;51.716;14.324;2022-08-25T06:49:56;17.63;;;15.57;;
27939;SDS011;15275;51.716;14.324;2022-08-25T06:52:22;23.05;;;17.83;;
27939;SDS011;15275;51.716;14.324;2022-08-25T06:54:48;23.63;;;17.98;;
27939;SDS011;15275;51.716;14.324;2022-08-25T06:57:14;23.48;;;17.33;;
27939;SDS011;15275;51.716;14.324;2022-08-25T06:59:41;27.60;;;18.52;;
27939;SDS011;15275;51.716;14.324;2022-08-25T07:02:07;21.88;;;17.38;;
27939;SDS011;15275;51.716;14.324;2022-08-25T07:04:33;25.98;;;16.75;;
27939;SDS011;15275;51.716;14.324;2022-08-25T07:07:01;20.25;;;15.27;;
27939;SDS011;15275;51.716;14.324;2022-08-25T07:09:28;20.63;;;16.67;;
27939;SDS011;15275;51.716;14.324;2022-08-25T07:11:54;21.35;;;15.35;;
27939;SDS011;15275;51.716;14.324;2022-08-25T07:14:20;21.30;;;16.13;;
27939;SDS011;15275;51.716;14.324;2022-08-25T07:16:46;22.77;;;17.23;;
27939;SDS011;15275;51.716;14.324;2022-08-25T07:19:12;21.85;;;16.35;;
27939;SDS011;15275;51.716;14.324;2022-08-25T07:21:40;21.38;;;16.42;;
27939;SDS011;15275;51.716;14.324;2022-08-25T07:24:10;24.50;;;16.83;;
27939;SDS011;15275;51.716;14.324;2022-08-25T07:26:38;22.67;;;18.48;;
27939;SDS011;15275;51.716;14.324;2022-08-25T07:29:12;21.83;;;16.95;;
27939;SDS011;15275;51.716;14.324;2022-08-25T07:31:47;21.55;;;17.60;;
27939;SDS011;15275;51.716;14.324;2022-08-25T07:34:13;28.98;;;18.45;;
27939;SDS011;15275;51.716;14.324;2022-08-25T07:36:59;21.38;;;17.63;;
27939;SDS011;15275;51.716;14.324;2022-08-25T07:39:28;23.65;;;18.45;;
27939;SDS011;15275;51.716;14.324;2022-08-25T07:41:56;22.10;;;18.08;;
27939;SDS011;15275;51.716;14.324;2022-08-25T07:44:22;25.38;;;19.42;;
27939;SDS011;15275;51.716;14.324;2022-08-25T07:46:49;25.67;;;18.23;;
27939;SDS011;15275;51.716;14.324;2022-08-25T07:49:19;24.60;;;18.13;;
27939;SDS011;15275;51.716;14.324;2022-08-25T07:51:47;24.58;;;19.52;;
27939;SDS011;15275;51.716;14.324;2022-08-25T07:54:13;26.95;;;18.73;;
27939;SDS011;15275;51.716;14.324;2022-08-25T07:56:39;25.88;;;20.00;;
27939;SDS011;15275;51.716;14.324;2022-08-25T07:59:07;23.85;;;19.27;;
27939;SDS011;15275;51.716;14.324;2022-08-25T08:01:33;23.08;;;18.60;;
27939;SDS011;15275;51.716;14.324;2022-08-25T08:04:00;28.40;;;18.65;;
27939;SDS011;15275;51.716;14.324;2022-08-25T08:06:27;25.73;;;18.77;;
27939;SDS011;15275;51.716;14.324;2022-08-25T08:08:53;23.77;;;19.08;;
27939;SDS011;15275;51.716;14.324;2022-08-25T08:11:24;22.75;;;17.42;;
27939;SDS011;15275;51.716;14.324;2022-08-25T08:14:01;28.52;;;19.60;;
27939;SDS011;15275;51.716;14.324;2022-08-25T08:16:28;24.50;;;19.10;;
27939;SDS011;15275;51.716;14.324;2022-08-25T08:18:55;24.02;;;18.85;;
27939;SDS011;15275;51.716;14.324;2022-08-25T08:21:30;22.98;;;17.92;;
27939;SDS011;15275;51.716;14.324;2022-08-25T08:23:58;21.77;;;17.77;;
27939;SDS011;15275;51.716;14.324;2022-08-25T08:26:25;21.17;;;16.67;;
27939;SDS011;15275;51.716;14.324;2022-08-25T08:28:52;23.70;;;18.13;;
27939;SDS011;15275;51.716;14.324;2022-08-25T08:31:18;20.85;;;16.52;;
27939;SDS011;15275;51.716;14.324;2022-08-25T08:33:46;24.13;;;16.58;;
27939;SDS011;15275;51.716;14.324;2022-08-25T08:36:15;26.00;;;16.52;;
27939;SDS011;15275;51.716;14.324;2022-08-25T08:38:42;24.50;;;17.08;;
27939;SDS011;15275;51.716;14.324;2022-08-25T08:44:27;20.08;;;16.80;;
27939;SDS011;15275;51.716;14.324;2022-08-25T08:50:25;21.30;;;16.40;;
27939;SDS011;15275;51.716;14.324;2022-08-25T08:58:20;23.35;;;17.58;;
27939;SDS011;15275;51.716;14.324;2022-08-25T09:01:28;23.67;;;17.67;;
27939;SDS011;15275;51.716;14.324;2022-08-25T09:04:02;22.40;;;17.23;;
27939;SDS011;15275;51.716;14.324;2022-08-25T09:06:46;19.10;;;16.05;;
27939;SDS011;15275;51.716;14.324;2022-08-25T09:09:17;31.38;;;17.92;;
27939;SDS011;15275;51.716;14.324;2022-08-25T09:17:13;23.35;;;17.35;;
27939;SDS011;15275;51.716;14.324;2022-08-25T09:20:16;20.95;;;15.98;;
27939;SDS011;15275;51.716;14.324;2022-08-25T09:28:48;25.67;;;16.42;;
27939;SDS011;15275;51.716;14.324;2022-08-25T09:31:31;21.58;;;17.15;;
27939;SDS011;15275;51.716;14.324;2022-08-25T09:34:04;22.50;;;16.83;;
27939;SDS011;15275;51.716;14.324;2022-08-25T09:36:53;26.23;;;17.05;;
27939;SDS011;15275;51.716;14.324;2022-08-25T09:39:19;23.08;;;15.52;;
27939;SDS011;15275;51.716;14.324;2022-08-25T09:41:49;23.38;;;16.48;;
27939;SDS011;15275;51.716;14.324;2022-08-25T09:44:32;21.35;;;14.05;;
27939;SDS011;15275;51.716;14.324;2022-08-25T09:50:01;22.55;;;14.65;;
27939;SDS011;15275;51.716;14.324;2022-08-25T09:52:30;18.20;;;14.43;;
27939;SDS011;15275;51.716;14.324;2022-08-25T09:57:32;18.85;;;14.73;;
27939;SDS011;15275;51.716;14.324;2022-08-25T10:00:15;21.17;;;14.85;;
27939;SDS011;15275;51.716;14.324;2022-08-25T10:06:00;17.75;;;13.10;;
27939;SDS011;15275;51.716;14.324;2022-08-25T10:08:50;22.50;;;13.77;;
27939;SDS011;15275;51.716;14.324;2022-08-25T10:11:54;20.92;;;12.80;;
27939;SDS011;15275;51.716;14.324;2022-08-25T10:17:11;21.77;;;11.40;;
27939;SDS011;15275;51.716;14.324;2022-08-25T10:19:52;18.38;;;11.68;;
27939;SDS011;15275;51.716;14.324;2022-08-25T10:22:37;15.82;;;11.18;;
27939;SDS011;15275;51.716;14.324;2022-08-25T10:25:06;16.42;;;10.57;;
27939;SDS011;15275;51.716;14.324;2022-08-25T10:33:38;25.55;;;11.68;;
27939;SDS011;15275;51.716;14.324;2022-08-25T10:38:42;16.77;;;12.07;;
27939;SDS011;15275;51.716;14.324;2022-08-25T10:45:13;18.52;;;11.43;;
27939;SDS011;15275;51.716;14.324;2022-08-25T10:47:52;18.05;;;12.80;;
27939;SDS011;15275;51.716;14.324;2022-08-25T10:53:57;16.88;;;13.68;;
27939;SDS011;15275;51.716;14.324;2022-08-25T10:56:36;20.95;;;12.88;;
27939;SDS011;15275;51.716;14.324;2022-08-25T10:59:20;18.40;;;13.98;;
27939;SDS011;15275;51.716;14.324;2022-08-25T11:05:16;21.65;;;15.52;;
27939;SDS011;15275;51.716;14.324;2022-08-25T11:07:49;21.77;;;16.17;;
27939;SDS011;15275;51.716;14.324;2022-08-25T11:10:58;23.58;;;16.85;;
27939;SDS011;15275;51.716;14.324;2022-08-25T11:13:26;24.63;;;16.55;;
27939;SDS011;15275;51.716;14.324;2022-08-25T11:16:17;26.60;;;17.48;;
27939;SDS011;15275;51.716;14.324;2022-08-25T11:22:24;23.77;;;18.92;;
27939;SDS011;15275;51.716;14.324;2022-08-25T11:25:16;21.98;;;17.40;;
27939;SDS011;15275;51.716;14.324;2022-08-25T11:30:51;30.25;;;16.83;;
27939;SDS011;15275;51.716;14.324;2022-08-25T11:33:21;23.33;;;16.15;;
27939;SDS011;15275;51.716;14.324;2022-08-25T11:36:24;24.15;;;16.23;;
27939;SDS011;15275;51.716;14.324;2022-08-25T11:50:33;21.50;;;13.82;;
27939;SDS011;15275;51.716;14.324;2022-08-25T11:53:14;25.48;;;12.15;;
27939;SDS011;15275;51.716;14.324;2022-08-25T11:55:55;23.15;;;12.10;;
27939;SDS011;15275;51.716;14.324;2022-08-25T11:58:39;19.20;;;11.70;;
27939;SDS011;15275;51.716;14.324;2022-08-25T12:07:22;24.20;;;11.20;;
27939;SDS011;15275;51.716;14.324;2022-08-25T12:19:25;24.52;;;11.77;;
27939;SDS011;15275;51.716;14.324;2022-08-25T12:24:53;19.55;;;12.20;;
27939;SDS011;15275;51.716;14.324;2022-08-25T12:27:31;20.08;;;13.07;;
27939;SDS011;15275;51.716;14.324;2022-08-25T12:30:14;16.38;;;12.65;;
27939;SDS011;15275;51.716;14.324;2022-08-25T12:33:04;20.63;;;13.18;;
27939;SDS011;15275;51.716;14.324;2022-08-25T12:36:06;18.48;;;13.85;;
27939;SDS011;15275;51.716;14.324;2022-08-25T12:38:41;20.30;;;13.70;;
27939;SDS011;15275;51.716;14.324;2022-08-25T12:41:14;16.23;;;12.93;;
27939;SDS011;15275;51.716;14.324;2022-08-25T12:43:49;21.05;;;13.32;;
27939;SDS011;15275;51.716;14.324;2022-08-25T12:51:58;18.65;;;13.80;;
27939;SDS011;15275;51.716;14.324;2022-08-25T13:00:20;17.10;;;12.40;;
27939;SDS011;15275;51.716;14.324;2022-08-25T13:05:39;14.48;;;11.82;;
27939;SDS011;15275;51.716;14.324;2022-08-25T13:11:55;18.13;;;11.85;;
27939;SDS011;15275;51.716;14.324;2022-08-25T13:14:43;17.92;;;10.73;;
27939;SDS011;15275;51.716;14.324;2022-08-25T13:17:10;18.85;;;10.82;;
27939;SDS011;15275;51.716;14.324;2022-08-25T13:19:49;16.77;;;11.07;;
27939;SDS011;15275;51.716;14.324;2022-08-25T13:22:15;15.93;;;10.57;;
27939;SDS011;15275;51.716;14.324;2022-08-25T13:24:43;14.00;;;10.85;;
27939;SDS011;15275;51.716;14.324;2022-08-25T13:27:18;16.00;;;11.05;;
27939;SDS011;15275;51.716;14.324;2022-08-25T13:29:53;16.90;;;11.20;;
27939;SDS011;15275;51.716;14.324;2022-08-25T13:32:30;15.10;;;9.85;;
27939;SDS011;15275;51.716;14.324;2022-08-25T13:35:07;16.65;;;9.90;;
27939;SDS011;15275;51.716;14.324;2022-08-25T13:37:40;18.25;;;9.55;;
27939;SDS011;15275;51.716;14.324;2022-08-25T13:40:07;14.20;;;9.95;;
27939;SDS011;15275;51.716;14.324;2022-08-25T13:42:34;16.63;;;9.30;;
27939;SDS011;15275;51.716;14.324;2022-08-25T13:45:03;17.77;;;9.68;;
27939;SDS011;15275;51.716;14.324;2022-08-25T13:47:34;13.95;;;8.75;;
27939;SDS011;15275;51.716;14.324;2022-08-25T13:52:52;14.07;;;8.02;;
27939;SDS011;15275;51.716;14.324;2022-08-25T13:58:14;11.20;;;8.15;;
27939;SDS011;15275;51.716;14.324;2022-08-25T14:00:50;18.75;;;8.45;;
27939;SDS011;15275;51.716;14.324;2022-08-25T14:03:37;14.43;;;8.65;;
27939;SDS011;15275;51.716;14.324;2022-08-25T14:09:03;12.52;;;8.60;;
27939;SDS011;15275;51.716;14.324;2022-08-25T14:14:02;21.67;;;8.52;;
27939;SDS011;15275;51.716;14.324;2022-08-25T14:16:47;18.20;;;8.80;;
27939;SDS011;15275;51.716;14.324;2022-08-25T14:19:25;14.90;;;9.00;;
27939;SDS011;15275;51.716;14.324;2022-08-25T14:21:52;16.38;;;9.10;;
27939;SDS011;15275;51.716;14.324;2022-08-25T14:24:19;15.45;;;9.48;;
27939;SDS011;15275;51.716;14.324;2022-08-25T14:26:47;12.80;;;8.82;;
27939;SDS011;15275;51.716;14.324;2022-08-25T14:29:15;23.75;;;9.07;;
27939;SDS011;15275;51.716;14.324;2022-08-25T14:31:42;13.70;;;9.50;;
27939;SDS011;15275;51.716;14.324;2022-08-25T14:34:14;18.48;;;10.27;;
27939;SDS011;15275;51.716;14.324;2022-08-25T14:36:44;18.67;;;8.90;;
27939;SDS011;15275;51.716;14.324;2022-08-25T14:39:11;16.52;;;10.70;;
27939;SDS011;15275;51.716;14.324;2022-08-25T14:41:37;20.38;;;9.23;;
27939;SDS011;15275;51.716;14.324;2022-08-25T14:44:05;20.00;;;9.45;;
27939;SDS011;15275;51.716;14.324;2022-08-25T14:46:34;17.00;;;9.30;;
27939;SDS011;15275;51.716;14.324;2022-08-25T14:49:06;15.93;;;8.70;;
27939;SDS011;15275;51.716;14.324;2022-08-25T14:51:35;19.70;;;8.95;;
27939;SDS011;15275;51.716;14.324;2022-08-25T14:54:05;21.70;;;9.38;;
27939;SDS011;15275;51.716;14.324;2022-08-25T14:56:37;13.05;;;8.80;;
27939;SDS011;15275;51.716;14.324;2022-08-25T14:59:03;16.45;;;7.57;;
27939;SDS011;15275;51.716;14.324;2022-08-25T15:01:29;23.05;;;9.18;;
27939;SDS011;15275;51.716;14.324;2022-08-25T15:03:57;16.02;;;8.07;;
27939;SDS011;15275;51.716;14.324;2022-08-25T15:06:29;18.85;;;8.95;;
27939;SDS011;15275;51.716;14.324;2022-08-25T15:08:58;14.82;;;9.02;;
27939;SDS011;15275;51.716;14.324;2022-08-25T15:11:35;17.35;;;9.30;;
27939;SDS011;15275;51.716;14.324;2022-08-25T15:14:11;22.02;;;8.30;;
27939;SDS011;15275;51.716;14.324;2022-08-25T15:16:43;15.32;;;9.00;;
27939;SDS011;15275;51.716;14.324;2022-08-25T15:19:14;17.05;;;9.05;;
27939;SDS011;15275;51.716;14.324;2022-08-25T15:21:43;21.25;;;9.40;;
27939;SDS011;15275;51.716;14.324;2022-08-25T15:24:11;24.38;;;9.45;;
27939;SDS011;15275;51.716;14.324;2022-08-25T15:26:39;22.05;;;10.00;;
27939;SDS011;15275;51.716;14.324;2022-08-25T15:29:08;23.75;;;9.70;;
27939;SDS011;15275;51.716;14.324;2022-08-25T15:31:35;16.90;;;9.27;;
27939;SDS011;15275;51.716;14.324;2022-08-25T15:34:02;24.63;;;9.90;;
27939;SDS011;15275;51.716;14.324;2022-08-25T15:36:28;17.13;;;8.88;;
27939;SDS011;15275;51.716;14.324;2022-08-25T15:38:54;16.42;;;8.98;;
27939;SDS011;15275;51.716;14.324;2022-08-25T15:41:20;17.55;;;8.55;;
27939;SDS011;15275;51.716;14.324;2022-08-25T15:43:46;19.35;;;8.80;;
27939;SDS011;15275;51.716;14.324;2022-08-25T15:46:14;15.50;;;8.55;;
27939;SDS011;15275;51.716;14.324;2022-08-25T15:48:44;26.50;;;8.57;;
27939;SDS011;15275;51.716;14.324;2022-08-25T15:51:11;18.38;;;9.25;;
27939;SDS011;15275;51.716;14.324;2022-08-25T15:53:39;15.50;;;8.27;;
27939;SDS011;15275;51.716;14.324;2022-08-25T15:56:05;16.17;;;8.27;;
27939;SDS011;15275;51.716;14.324;2022-08-25T15:58:32;22.38;;;9.00;;
27939;SDS011;15275;51.716;14.324;2022-08-25T16:00:59;15.50;;;8.98;;
27939;SDS011;15275;51.716;14.324;2022-08-25T16:03:25;15.77;;;8.45;;
27939;SDS011;15275;51.716;14.324;2022-08-25T16:05:52;22.50;;;8.95;;
27939;SDS011;15275;51.716;14.324;2022-08-25T16:08:18;22.95;;;8.88;;
27939;SDS011;15275;51.716;14.324;2022-08-25T16:10:44;22.13;;;8.52;;
27939;SDS011;15275;51.716;14.324;2022-08-25T16:13:10;20.05;;;8.93;;
27939;SDS011;15275;51.716;14.324;2022-08-25T16:15:36;19.30;;;9.18;;
27939;SDS011;15275;51.716;14.324;2022-08-25T16:18:03;19.77;;;8.90;;
27939;SDS011;15275;51.716;14.324;2022-08-25T16:20:31;23.20;;;8.77;;
27939;SDS011;15275;51.716;14.324;2022-08-25T16:22:59;23.20;;;8.65;;
27939;SDS011;15275;51.716;14.324;2022-08-25T16:25:27;16.77;;;8.15;;
27939;SDS011;15275;51.716;14.324;2022-08-25T16:27:54;20.73;;;8.82;;
27939;SDS011;15275;51.716;14.324;2022-08-25T16:30:20;23.88;;;8.65;;
27939;SDS011;15275;51.716;14.324;2022-08-25T16:32:46;13.80;;;8.07;;
27939;SDS011;15275;51.716;14.324;2022-08-25T16:35:12;16.83;;;8.00;;
27939;SDS011;15275;51.716;14.324;2022-08-25T16:37:38;29.33;;;9.02;;
27939;SDS011;15275;51.716;14.324;2022-08-25T16:40:05;23.23;;;8.82;;
27939;SDS011;15275;51.716;14.324;2022-08-25T16:42:32;20.67;;;8.48;;